Time;durP1;ratioP1;P1;durP2;ratioP2;P2;SDS_P1;SDS_P2;PMS_P1;PMS_P2;Temp;Humidity;BMP_temperature;BMP_pressure;BME280_temperature;BME280_humidity;BME280_pressure;Samples;Min_cycle;Max_cycle;Signal;HPM_P1;HPM_P2
2022/10/21 00:00:50;;;;;;;38.17;17.02;;;12.20;99.90;;;;;;5100872;28;20020;-72
2022/10/21 00:03:18;;;;;;;36.03;16.58;;;12.30;99.90;;;;;;5100511;28;20023;-72
2022/10/21 00:05:45;;;;;;;33.30;16.52;;;12.30;99.90;;;;;;5100207;28;20028;-72
2022/10/21 00:08:13;;;;;;;28.10;15.98;;;12.30;99.90;;;;;;5100334;28;20012;-72
2022/10/21 00:10:40;;;;;;;36.15;16.52;;;12.40;99.90;;;;;;5100093;28;20077;-72
2022/10/21 00:13:08;;;;;;;31.63;16.40;;;12.40;99.90;;;;;;5100031;28;20028;-72
2022/10/21 00:15:35;;;;;;;34.33;15.80;;;12.50;99.90;;;;;;5100021;28;20110;-72
2022/10/21 00:18:03;;;;;;;31.95;15.20;;;12.50;99.90;;;;;;5100119;28;20103;-72
2022/10/21 00:20:31;;;;;;;25.50;14.75;;;12.50;99.90;;;;;;5099917;28;20084;-72
2022/10/21 00:22:58;;;;;;;28.33;14.27;;;12.60;99.90;;;;;;5099854;28;20418;-72
2022/10/21 00:25:25;;;;;;;30.73;15.35;;;12.60;99.90;;;;;;5100076;28;20411;-72
2022/10/21 00:27:53;;;;;;;28.85;14.70;;;12.60;99.90;;;;;;5081880;28;20565;-72
2022/10/21 00:30:20;;;;;;;27.17;15.18;;;12.60;99.90;;;;;;5100320;28;20031;-72
2022/10/21 00:32:47;;;;;;;32.35;15.02;;;12.60;99.90;;;;;;5100028;28;20020;-72
2022/10/21 00:35:15;;;;;;;25.65;15.02;;;12.70;99.90;;;;;;5081612;28;20024;-72
2022/10/21 00:37:43;;;;;;;26.05;14.35;;;12.70;99.90;;;;;;5081852;28;20046;-72
2022/10/21 00:40:10;;;;;;;26.30;14.13;;;12.70;99.90;;;;;;5100101;28;20020;-72
2022/10/21 00:42:40;;;;;;;31.42;14.50;;;12.70;99.90;;;;;;5099510;28;20020;-72
2022/10/21 00:45:07;;;;;;;22.98;13.98;;;12.80;99.90;;;;;;5099427;28;20020;-72
2022/10/21 00:47:46;;;;;;;25.55;13.77;;;12.80;99.90;;;;;;5081578;28;20073;-72
2022/10/21 00:50:38;;;;;;;25.88;13.95;;;12.80;99.90;;;;;;5099410;28;20051;-72
2022/10/21 00:53:11;;;;;;;20.70;13.05;;;12.90;99.90;;;;;;5069038;28;20048;-72
2022/10/21 00:55:45;;;;;;;29.00;14.05;;;12.80;99.90;;;;;;5079016;28;20074;-72
2022/10/21 00:58:14;;;;;;;23.50;12.15;;;12.80;99.90;;;;;;5079118;28;20020;-72
2022/10/21 01:00:41;;;;;;;28.23;14.00;;;12.90;99.90;;;;;;5078938;28;20025;-72
2022/10/21 01:03:09;;;;;;;33.90;14.93;;;12.90;99.90;;;;;;5079173;28;20056;-72
2022/10/21 01:05:38;;;;;;;28.80;13.15;;;12.90;99.90;;;;;;5079429;28;20021;-72
2022/10/21 01:08:06;;;;;;;28.40;13.18;;;12.90;99.90;;;;;;5078994;28;20095;-72
2022/10/21 01:10:33;;;;;;;30.38;13.80;;;12.90;99.90;;;;;;5077706;28;20017;-72
2022/10/21 01:13:00;;;;;;;28.65;12.68;;;12.90;99.90;;;;;;5078718;28;20056;-72
2022/10/21 01:15:54;;;;;;;24.02;13.27;;;12.90;99.90;;;;;;5078989;28;20024;-72
2022/10/21 01:18:41;;;;;;;17.65;11.85;;;12.90;99.90;;;;;;5078827;28;20020;-72
2022/10/21 01:21:32;;;;;;;24.55;13.82;;;12.90;99.90;;;;;;5077434;28;20032;-72
2022/10/21 01:24:42;;;;;;;18.48;11.25;;;12.90;99.90;;;;;;5078470;28;20025;-72
2022/10/21 01:27:19;;;;;;;23.05;12.13;;;12.90;99.90;;;;;;5069526;28;20040;-72
2022/10/21 01:30:08;;;;;;;25.50;12.88;;;13.00;99.90;;;;;;5078340;28;20404;-72
2022/10/21 01:32:55;;;;;;;22.38;12.50;;;13.00;99.90;;;;;;5078663;28;20021;-72
2022/10/21 01:35:42;;;;;;;22.13;12.02;;;13.00;99.90;;;;;;5077187;28;20021;-72
2022/10/21 01:38:22;;;;;;;21.80;11.45;;;13.00;99.90;;;;;;5077330;28;20208;-72
2022/10/21 01:41:25;;;;;;;19.67;11.52;;;13.00;99.90;;;;;;5078758;28;20121;-72
2022/10/21 01:44:11;;;;;;;21.95;11.43;;;13.00;99.90;;;;;;5078007;28;20099;-72
2022/10/21 01:46:42;;;;;;;21.83;11.85;;;13.00;99.90;;;;;;5076978;28;20108;-72
2022/10/21 01:49:31;;;;;;;16.70;11.82;;;13.00;99.90;;;;;;5078167;28;20127;-72
2022/10/21 01:52:00;;;;;;;23.38;10.77;;;13.00;99.90;;;;;;5076634;28;20044;-72
2022/10/21 01:54:37;;;;;;;22.42;11.73;;;13.00;99.90;;;;;;5078489;28;20052;-72
2022/10/21 01:57:07;;;;;;;22.60;11.85;;;13.00;99.90;;;;;;5076756;28;20029;-72
2022/10/21 01:59:38;;;;;;;15.98;10.90;;;13.00;99.90;;;;;;5078201;28;20405;-72
2022/10/21 02:02:07;;;;;;;22.48;11.50;;;13.00;99.90;;;;;;5077568;28;20024;-72
2022/10/21 02:04:36;;;;;;;21.88;12.23;;;13.00;99.90;;;;;;5077647;28;20052;-72
2022/10/21 02:07:04;;;;;;;18.88;10.32;;;13.00;99.90;;;;;;5077638;28;20023;-72
2022/10/21 02:09:32;;;;;;;27.67;11.55;;;13.00;99.90;;;;;;5078030;28;20074;-72
2022/10/21 02:12:03;;;;;;;21.95;10.88;;;13.00;99.90;;;;;;5076471;28;20021;-72
2022/10/21 02:14:42;;;;;;;22.13;10.75;;;13.00;99.90;;;;;;5077273;28;20028;-72
2022/10/21 02:17:13;;;;;;;20.55;12.02;;;13.00;99.90;;;;;;5077998;28;20474;-72
2022/10/21 02:19:41;;;;;;;19.30;10.02;;;12.90;99.90;;;;;;5076502;28;20025;-72
2022/10/21 02:22:13;;;;;;;26.00;11.07;;;12.90;99.90;;;;;;5076049;28;20035;-72
2022/10/21 02:25:00;;;;;;;23.77;12.10;;;12.90;99.90;;;;;;5076135;28;20081;-72
2022/10/21 02:27:27;;;;;;;21.40;11.45;;;12.90;99.90;;;;;;5077999;28;20024;-72
2022/10/21 02:29:59;;;;;;;20.25;10.98;;;13.00;99.90;;;;;;5076056;28;20039;-72
2022/10/21 02:32:52;;;;;;;20.80;11.77;;;13.00;99.90;;;;;;5076101;28;20032;-72
2022/10/21 02:35:47;;;;;;;19.27;10.68;;;13.00;99.90;;;;;;5076000;28;20451;-72
2022/10/21 02:38:26;;;;;;;23.73;11.05;;;13.00;99.90;;;;;;5077816;28;20025;-72
2022/10/21 02:41:08;;;;;;;18.42;10.65;;;13.00;99.90;;;;;;5077027;28;20024;-72
2022/10/21 02:43:53;;;;;;;23.50;9.95;;;13.00;99.90;;;;;;5077486;28;20028;-72
2022/10/21 02:46:20;;;;;;;19.85;10.43;;;13.00;99.90;;;;;;5076126;28;20021;-72
2022/10/21 02:48:49;;;;;;;20.35;11.50;;;13.00;99.90;;;;;;5077094;28;20082;-72
2022/10/21 02:51:16;;;;;;;21.92;11.52;;;13.00;99.90;;;;;;5077338;28;20020;-73
2022/10/21 02:53:43;;;;;;;16.67;9.70;;;13.10;99.90;;;;;;5097102;28;20368;-72
2022/10/21 02:56:11;;;;;;;23.92;11.38;;;13.10;99.90;;;;;;5097584;28;20032;-72
2022/10/21 02:58:38;;;;;;;17.88;11.68;;;13.00;99.90;;;;;;5097375;28;20403;-72
2022/10/21 03:01:06;;;;;;;19.30;11.27;;;13.00;99.90;;;;;;5096973;28;20020;-72
2022/10/21 03:03:33;;;;;;;18.77;10.30;;;13.10;99.90;;;;;;5078970;28;20028;-72
2022/10/21 03:06:01;;;;;;;23.92;10.27;;;13.10;99.90;;;;;;5078982;28;20024;-72
2022/10/21 03:08:28;;;;;;;21.15;11.50;;;13.10;99.90;;;;;;5097297;28;20074;-72
2022/10/21 03:10:55;;;;;;;18.85;10.95;;;13.20;99.90;;;;;;5096830;28;20023;-72
2022/10/21 03:13:22;;;;;;;19.73;11.43;;;13.20;99.90;;;;;;5096752;28;20024;-72
2022/10/21 03:15:51;;;;;;;18.60;10.85;;;13.20;99.90;;;;;;5096725;28;20107;-72
2022/10/21 03:18:18;;;;;;;17.48;10.50;;;13.30;99.90;;;;;;5097449;28;20023;-72
2022/10/21 03:20:50;;;;;;;16.55;11.30;;;13.30;99.90;;;;;;5097306;28;20066;-72
2022/10/21 03:23:18;;;;;;;23.63;11.57;;;13.30;99.90;;;;;;5078712;28;20115;-72
2022/10/21 03:25:46;;;;;;;21.60;11.65;;;13.30;99.90;;;;;;5096684;28;20024;-72
2022/10/21 03:28:13;;;;;;;21.83;10.40;;;13.30;99.90;;;;;;5078776;28;20024;-72
2022/10/21 03:30:40;;;;;;;20.30;10.23;;;13.20;99.90;;;;;;5097145;28;20107;-72
2022/10/21 03:33:08;;;;;;;23.45;10.60;;;13.30;99.90;;;;;;5098242;28;20121;-72
2022/10/21 03:35:35;;;;;;;21.50;11.77;;;13.30;99.90;;;;;;5082807;28;20028;-72
2022/10/21 03:38:02;;;;;;;20.23;9.60;;;13.20;99.90;;;;;;5101200;28;20404;-72
2022/10/21 03:40:29;;;;;;;22.98;10.77;;;13.20;99.90;;;;;;5100762;28;20020;-72
2022/10/21 03:42:57;;;;;;;20.23;10.55;;;13.20;99.90;;;;;;5082539;28;20169;-72
2022/10/21 03:45:25;;;;;;;25.55;9.95;;;13.20;99.90;;;;;;5100249;28;20031;-72
2022/10/21 03:47:53;;;;;;;16.35;10.23;;;13.20;99.90;;;;;;5100752;28;20412;-72
2022/10/21 03:50:20;;;;;;;20.85;10.85;;;13.20;99.90;;;;;;5100515;28;20031;-72
2022/10/21 03:52:48;;;;;;;21.98;10.77;;;13.10;99.90;;;;;;5078934;28;20075;-72
2022/10/21 03:55:19;;;;;;;14.80;9.23;;;13.10;99.90;;;;;;5080490;28;20436;-72
2022/10/21 03:57:47;;;;;;;19.25;9.75;;;13.10;99.90;;;;;;5080761;28;20027;-72
2022/10/21 04:00:16;;;;;;;21.98;10.10;;;13.10;99.90;;;;;;5079276;28;20021;-72
2022/10/21 04:02:43;;;;;;;17.40;9.95;;;13.10;99.90;;;;;;5079801;28;20029;-72
2022/10/21 04:05:10;;;;;;;18.83;9.95;;;13.10;99.90;;;;;;5080205;28;20100;-72
2022/10/21 04:07:38;;;;;;;19.52;10.68;;;13.00;99.90;;;;;;5080098;28;20020;-72
2022/10/21 04:10:07;;;;;;;15.80;10.13;;;13.00;99.90;;;;;;5080408;28;20021;-72
2022/10/21 04:12:34;;;;;;;17.17;9.00;;;13.00;99.90;;;;;;5078803;28;20025;-72
2022/10/21 04:15:01;;;;;;;17.42;9.75;;;12.90;99.90;;;;;;5079737;28;20107;-72
2022/10/21 04:17:29;;;;;;;22.17;11.40;;;12.90;99.90;;;;;;5079041;28;20040;-72
2022/10/21 04:19:56;;;;;;;22.67;10.82;;;12.80;99.90;;;;;;5080279;28;20074;-72
2022/10/21 04:22:23;;;;;;;26.90;11.77;;;12.80;99.90;;;;;;5080197;28;20024;-72
2022/10/21 04:24:51;;;;;;;18.27;10.30;;;12.80;99.90;;;;;;5078448;28;20101;-72
2022/10/21 04:27:19;;;;;;;24.00;11.05;;;12.80;99.90;;;;;;5078515;28;20059;-72
2022/10/21 04:29:46;;;;;;;17.48;10.43;;;12.70;99.90;;;;;;5078425;28;20020;-72
2022/10/21 04:32:13;;;;;;;20.63;10.43;;;12.80;99.90;;;;;;5079530;28;20044;-72
2022/10/21 04:34:42;;;;;;;19.75;10.43;;;12.80;99.90;;;;;;5078638;28;20366;-72
2022/10/21 04:37:09;;;;;;;15.82;9.30;;;12.80;99.90;;;;;;5078463;28;20119;-72
2022/10/21 04:39:36;;;;;;;18.63;11.23;;;12.90;99.90;;;;;;5079323;28;20020;-72
2022/10/21 04:42:03;;;;;;;14.23;9.35;;;12.90;99.90;;;;;;5078396;28;20408;-72
2022/10/21 04:44:31;;;;;;;19.65;9.52;;;12.90;99.90;;;;;;5079045;28;20324;-72
2022/10/21 04:46:58;;;;;;;18.38;9.55;;;12.90;99.90;;;;;;5079800;28;20401;-72
2022/10/21 04:49:26;;;;;;;18.90;9.65;;;12.90;99.90;;;;;;5078124;28;20323;-72
2022/10/21 04:51:53;;;;;;;13.65;8.20;;;12.90;99.90;;;;;;5086232;28;20097;-72
2022/10/21 04:54:20;;;;;;;14.98;9.63;;;12.90;99.90;;;;;;5099348;28;20502;-72
2022/10/21 04:56:49;;;;;;;16.23;9.82;;;12.90;99.90;;;;;;5099836;28;20030;-72
2022/10/21 04:59:16;;;;;;;15.52;8.45;;;12.90;99.90;;;;;;5099165;28;20020;-72
2022/10/21 05:01:43;;;;;;;16.75;10.50;;;12.90;99.90;;;;;;5081422;28;20028;-72
2022/10/21 05:04:10;;;;;;;14.93;9.60;;;12.90;99.90;;;;;;5098878;28;20111;-72
2022/10/21 05:06:38;;;;;;;20.67;10.43;;;12.90;99.90;;;;;;5099672;28;20016;-72
2022/10/21 05:09:05;;;;;;;20.52;10.38;;;12.90;99.90;;;;;;5099085;28;20012;-72
2022/10/21 05:11:32;;;;;;;16.25;9.70;;;12.90;99.90;;;;;;5080660;28;20023;-72
2022/10/21 05:14:00;;;;;;;15.10;8.65;;;12.90;99.90;;;;;;5099324;28;20366;-72
2022/10/21 05:16:27;;;;;;;15.38;8.85;;;12.90;99.90;;;;;;5097839;28;20027;-73
2022/10/21 05:18:55;;;;;;;16.90;8.90;;;12.80;99.90;;;;;;5098048;28;20035;-72
2022/10/21 05:21:22;;;;;;;19.63;10.18;;;12.90;99.90;;;;;;5098848;28;20054;-72
2022/10/21 05:23:49;;;;;;;20.48;9.25;;;12.80;99.90;;;;;;5080910;28;20047;-72
2022/10/21 05:26:17;;;;;;;18.48;10.05;;;12.80;99.90;;;;;;5081019;28;20366;-72
2022/10/21 05:28:45;;;;;;;19.30;9.60;;;12.70;99.90;;;;;;5098765;28;20020;-72
2022/10/21 05:31:12;;;;;;;17.15;9.73;;;12.70;99.90;;;;;;5098887;28;20427;-72
2022/10/21 05:33:40;;;;;;;17.13;9.15;;;12.70;99.90;;;;;;5099345;28;20027;-72
2022/10/21 05:36:07;;;;;;;17.70;10.13;;;12.70;99.90;;;;;;5098842;28;20427;-72
2022/10/21 05:38:35;;;;;;;20.13;9.13;;;12.70;99.90;;;;;;5098454;28;20426;-72
2022/10/21 05:41:02;;;;;;;14.98;9.13;;;12.70;99.90;;;;;;5098726;28;20320;-72
2022/10/21 05:43:30;;;;;;;15.00;8.40;;;12.80;99.90;;;;;;5098394;28;20050;-72
2022/10/21 05:45:58;;;;;;;14.05;8.35;;;12.80;99.90;;;;;;5098574;28;20016;-72
2022/10/21 05:48:25;;;;;;;13.68;8.43;;;12.90;99.90;;;;;;5097238;28;20120;-72
2022/10/21 05:50:54;;;;;;;12.85;8.05;;;12.90;99.90;;;;;;5080550;28;20467;-72
2022/10/21 05:53:23;;;;;;;17.83;8.35;;;12.80;99.90;;;;;;5098108;28;20048;-72
2022/10/21 05:55:58;;;;;;;15.68;7.70;;;12.80;99.90;;;;;;5097889;28;20109;-72
2022/10/21 05:58:27;;;;;;;13.85;8.02;;;12.80;99.90;;;;;;5098260;28;20031;-72
2022/10/21 06:00:54;;;;;;;14.85;8.48;;;12.70;99.90;;;;;;5098030;28;20431;-72
2022/10/21 06:03:31;;;;;;;12.02;7.97;;;12.70;99.90;;;;;;5098595;28;20042;-72
2022/10/21 06:06:03;;;;;;;20.35;8.18;;;12.60;99.90;;;;;;5080043;28;20052;-72
2022/10/21 06:08:31;;;;;;;14.63;7.82;;;12.60;99.90;;;;;;5097931;28;20101;-78
2022/10/21 06:11:16;;;;;;;13.82;7.97;;;12.50;99.90;;;;;;5097877;28;20054;-80
2022/10/21 06:13:45;;;;;;;15.18;8.02;;;12.50;99.90;;;;;;5096815;28;20432;-77
2022/10/21 06:16:13;;;;;;;14.68;7.88;;;12.50;99.90;;;;;;5097747;28;20422;-79
2022/10/21 06:18:41;;;;;;;19.33;9.52;;;12.50;99.90;;;;;;5096636;28;20305;-78
2022/10/21 06:21:09;;;;;;;22.45;9.38;;;12.50;99.90;;;;;;5096619;28;20056;-79
2022/10/21 06:23:37;;;;;;;18.77;8.77;;;12.50;99.90;;;;;;5097797;28;20024;-79
2022/10/21 06:26:12;;;;;;;14.82;8.23;;;12.60;99.90;;;;;;5097553;28;20028;-80
2022/10/21 06:28:42;;;;;;;12.35;8.43;;;12.60;99.90;;;;;;5079496;28;20022;-81
2022/10/21 06:31:13;;;;;;;16.65;8.40;;;12.60;99.90;;;;;;5096372;28;20020;-81
2022/10/21 06:33:41;;;;;;;16.13;8.13;;;12.70;99.90;;;;;;5097898;28;20032;-80
2022/10/21 06:36:08;;;;;;;14.77;8.20;;;12.70;99.90;;;;;;5096320;28;20031;-80
2022/10/21 06:38:36;;;;;;;12.57;7.60;;;12.80;99.90;;;;;;5097675;28;20027;-80
2022/10/21 06:41:07;;;;;;;15.75;8.50;;;12.80;99.90;;;;;;5079290;28;20028;-81
2022/10/21 06:43:35;;;;;;;13.57;7.55;;;12.90;99.90;;;;;;5079409;28;20027;-78
2022/10/21 06:46:04;;;;;;;14.07;7.32;;;12.90;99.90;;;;;;5096417;28;20020;-84
2022/10/21 06:48:31;;;;;;;11.35;6.65;;;13.00;99.90;;;;;;5079178;28;20020;-85
2022/10/21 06:51:08;;;;;;;13.18;6.80;;;13.10;99.90;;;;;;5097170;28;20023;-85
2022/10/21 06:53:35;;;;;;;;;;;13.10;99.90;;;;;;5077490;28;20440;-84
2022/10/21 06:56:08;;;;;;;11.20;6.57;;;13.10;99.90;;;;;;5076828;28;20282;-78
2022/10/21 06:58:37;;;;;;;11.90;6.70;;;13.10;99.90;;;;;;5092791;28;20028;-79
2022/10/21 07:01:09;;;;;;;10.55;6.13;;;13.20;99.90;;;;;;5075644;28;20477;-75
2022/10/21 07:03:37;;;;;;;11.35;6.25;;;13.20;99.90;;;;;;5077066;28;20111;-73
2022/10/21 07:06:05;;;;;;;13.48;6.75;;;13.20;99.90;;;;;;5076935;28;20016;-73
2022/10/21 07:08:33;;;;;;;11.93;6.78;;;13.20;99.90;;;;;;5075851;28;20027;-73
2022/10/21 07:11:01;;;;;;;11.70;6.60;;;13.20;99.90;;;;;;5076543;28;20096;-86
2022/10/21 07:13:28;;;;;;;14.63;6.28;;;13.20;99.90;;;;;;5076537;28;20024;-86
2022/10/21 07:16:05;;;;;;;14.18;6.40;;;13.30;99.90;;;;;;5075473;28;20055;-74
2022/10/21 07:18:34;;;;;;;11.57;6.15;;;13.40;99.90;;;;;;5076666;28;20028;-73
2022/10/21 07:21:06;;;;;;;7.90;5.28;;;13.50;99.90;;;;;;5076749;28;20036;-72
2022/10/21 07:23:34;;;;;;;8.10;5.03;;;13.60;99.90;;;;;;5075316;28;20115;-74
2022/10/21 07:26:06;;;;;;;10.05;5.20;;;13.70;99.90;;;;;;5076446;28;20021;-73
2022/10/21 07:28:34;;;;;;;12.93;5.38;;;13.80;99.90;;;;;;5076554;28;20021;-72
2022/10/21 07:31:05;;;;;;;8.85;5.57;;;13.80;99.90;;;;;;5075432;28;20025;-72
2022/10/21 07:33:34;;;;;;;10.35;5.75;;;13.90;99.90;;;;;;5076405;28;20075;-73
2022/10/21 07:36:09;;;;;;;11.10;5.47;;;14.00;99.90;;;;;;5076938;28;20396;-73
2022/10/21 07:38:36;;;;;;;12.52;5.15;;;14.10;99.90;;;;;;5076543;28;20025;-73
2022/10/21 07:41:04;;;;;;;15.02;5.70;;;14.10;99.90;;;;;;5076296;28;20024;-74
2022/10/21 07:43:32;;;;;;;6.93;4.50;;;14.20;99.90;;;;;;5076201;28;20021;-80
2022/10/21 07:46:00;;;;;;;8.00;4.65;;;14.30;99.90;;;;;;5076837;28;20029;-74
2022/10/21 07:48:28;;;;;;;8.40;5.22;;;14.40;99.90;;;;;;5076706;28;20016;-75
2022/10/21 07:51:03;;;;;;;6.57;4.80;;;14.50;99.90;;;;;;5076497;28;20024;-75
2022/10/21 07:53:31;;;;;;;6.35;4.05;;;14.60;99.90;;;;;;5074939;28;20083;-74
2022/10/21 07:56:07;;;;;;;8.68;4.30;;;14.70;99.90;;;;;;5076136;28;20028;-74
2022/10/21 07:58:34;;;;;;;10.73;5.25;;;14.80;99.90;;;;;;5076243;28;20031;-82
2022/10/21 08:01:04;;;;;;;11.18;4.10;;;14.90;99.90;;;;;;5075002;28;20033;-73
2022/10/21 08:03:31;;;;;;;6.65;3.72;;;15.00;99.90;;;;;;5074995;28;20028;-73
2022/10/21 08:05:59;;;;;;;11.10;4.65;;;15.10;99.90;;;;;;5076600;28;20401;-72
2022/10/21 08:08:27;;;;;;;14.07;5.00;;;15.20;99.90;;;;;;5076759;28;20402;-72
2022/10/21 08:10:55;;;;;;;11.23;4.18;;;15.30;99.90;;;;;;5074924;28;20070;-73
2022/10/21 08:13:23;;;;;;;11.52;3.55;;;15.40;99.90;;;;;;5076186;28;20033;-74
2022/10/21 08:15:53;;;;;;;9.27;4.40;;;15.40;99.90;;;;;;5076181;28;20089;-72
2022/10/21 08:18:21;;;;;;;9.63;4.15;;;15.50;99.90;;;;;;5076837;28;20020;-73
2022/10/21 08:20:49;;;;;;;6.18;3.60;;;15.60;99.90;;;;;;5080256;28;20070;-73
2022/10/21 08:23:18;;;;;;;8.05;3.70;;;15.60;99.90;;;;;;5080183;28;20028;-72
2022/10/21 08:25:50;;;;;;;6.18;3.88;;;15.60;99.90;;;;;;5079831;28;20040;-71
2022/10/21 08:28:17;;;;;;;7.18;3.60;;;15.70;99.90;;;;;;5079887;28;20020;-72
2022/10/21 08:30:44;;;;;;;7.78;4.22;;;15.70;99.90;;;;;;5078402;28;20436;-72
2022/10/21 08:33:13;;;;;;;8.65;3.90;;;15.70;99.90;;;;;;5079745;28;20028;-72
2022/10/21 08:35:40;;;;;;;7.50;4.05;;;15.80;99.90;;;;;;5078584;28;20443;-71
2022/10/21 08:38:08;;;;;;;5.72;3.90;;;15.80;99.90;;;;;;5079571;28;20024;-71
2022/10/21 08:40:47;;;;;;;6.18;3.63;;;15.90;99.90;;;;;;5079908;28;20020;-72
2022/10/21 08:43:23;;;;;;;6.80;3.88;;;15.90;99.90;;;;;;5079213;28;20028;-71
2022/10/21 08:45:57;;;;;;;9.45;4.32;;;16.00;99.90;;;;;;5079533;28;20021;-71
2022/10/21 08:48:42;;;;;;;7.68;3.88;;;16.10;99.90;;;;;;5079364;28;20027;-71
2022/10/21 08:51:23;;;;;;;7.82;3.80;;;16.20;99.90;;;;;;5079227;28;20452;-72
2022/10/21 08:53:57;;;;;;;15.82;4.55;;;16.30;99.90;;;;;;5099401;28;20028;-71
2022/10/21 08:56:25;;;;;;;6.97;4.30;;;16.40;99.90;;;;;;5099565;28;20035;-71
2022/10/21 08:58:54;;;;;;;8.48;3.78;;;16.50;99.90;;;;;;5099395;28;20027;-72
2022/10/21 09:01:59;;;;;;;7.32;3.20;;;16.60;99.90;;;;;;5099469;28;20039;-73
2022/10/21 09:04:39;;;;;;;6.93;3.20;;;16.70;99.90;;;;;;5099378;28;20024;-73
2022/10/21 09:07:32;;;;;;;7.07;3.40;;;16.80;99.90;;;;;;5099594;28;20047;-73
2022/10/21 09:10:25;;;;;;;12.90;4.22;;;16.90;99.90;;;;;;5099090;28;20319;-73
2022/10/21 09:13:13;;;;;;;8.23;4.05;;;16.90;99.90;;;;;;5093245;28;20028;-73
2022/10/21 09:16:18;;;;;;;8.50;4.10;;;17.00;99.90;;;;;;5098902;28;20408;-73
2022/10/21 09:19:07;;;;;;;10.88;4.07;;;17.10;99.90;;;;;;5099050;28;20111;-73
2022/10/21 09:21:59;;;;;;;23.15;3.80;;;17.00;99.90;;;;;;5099111;28;20016;-73
2022/10/21 09:24:36;;;;;;;6.03;3.20;;;17.00;99.90;;;;;;5099279;28;20024;-73
2022/10/21 09:27:05;;;;;;;6.47;3.45;;;17.00;99.90;;;;;;5098926;28;20534;-73
2022/10/21 09:29:33;;;;;;;7.80;3.33;;;17.00;99.90;;;;;;5098575;28;20477;-73
2022/10/21 09:32:19;;;;;;;6.90;3.70;;;17.10;99.90;;;;;;5098528;28;20023;-71
2022/10/21 09:35:10;;;;;;;9.18;4.78;;;17.10;99.90;;;;;;5098557;28;20020;-71
2022/10/21 09:37:49;;;;;;;7.10;3.53;;;17.00;99.90;;;;;;5098188;28;20377;-71
2022/10/21 09:40:17;;;;;;;10.20;4.18;;;17.10;99.90;;;;;;5098469;28;20063;-71
2022/10/21 09:42:48;;;;;;;8.10;3.95;;;17.10;99.90;;;;;;5098565;28;20089;-73
2022/10/21 09:45:21;;;;;;;9.57;4.07;;;17.10;99.90;;;;;;5080322;28;20028;-71
2022/10/21 09:47:57;;;;;;;7.82;3.78;;;17.00;99.90;;;;;;5080331;28;20370;-73
2022/10/21 09:50:25;;;;;;;8.70;3.78;;;17.00;99.90;;;;;;5098832;28;20105;-73
2022/10/21 09:53:08;;;;;;;12.35;3.70;;;17.00;99.90;;;;;;5098083;28;20052;-73
2022/10/21 09:55:39;;;;;;;8.00;3.45;;;17.00;99.90;;;;;;5098438;28;20078;-73
2022/10/21 09:58:07;;;;;;;5.97;3.03;;;17.00;99.90;;;;;;5080100;28;20028;-73
2022/10/21 10:00:49;;;;;;;6.65;3.65;;;16.90;99.90;;;;;;5098571;28;20031;-71
2022/10/21 10:03:42;;;;;;;7.78;3.90;;;16.90;99.90;;;;;;5098025;28;20327;-73
2022/10/21 10:06:09;;;;;;;6.50;3.20;;;16.80;99.90;;;;;;5098261;28;20016;-71
2022/10/21 10:08:43;;;;;;;9.98;4.63;;;16.80;99.90;;;;;;5098177;28;20024;-74
2022/10/21 10:11:13;;;;;;;8.50;4.28;;;16.70;99.90;;;;;;5097854;28;20024;-73
2022/10/21 10:13:52;;;;;;;7.85;3.92;;;16.70;99.90;;;;;;5098490;28;20104;-74
2022/10/21 10:16:28;;;;;;;9.70;4.07;;;16.70;99.90;;;;;;5098055;28;20016;-74
2022/10/21 10:19:20;;;;;;;8.23;4.43;;;16.70;99.90;;;;;;5098086;28;20069;-73
2022/10/21 10:22:14;;;;;;;8.55;3.90;;;16.60;99.90;;;;;;5098208;28;20059;-71
2022/10/21 10:24:43;;;;;;;9.13;4.43;;;16.60;99.90;;;;;;5097544;28;20020;-73
2022/10/21 10:27:25;;;;;;;10.10;4.63;;;16.60;99.90;;;;;;5079638;28;20055;-76
2022/10/21 10:29:57;;;;;;;11.02;3.97;;;16.60;99.90;;;;;;5097459;28;20020;-72
2022/10/21 10:32:34;;;;;;;13.00;5.00;;;16.60;99.90;;;;;;5098260;28;20020;-72
2022/10/21 10:35:08;;;;;;;10.25;4.30;;;16.60;99.90;;;;;;5097452;28;20021;-72
2022/10/21 10:37:37;;;;;;;10.30;3.78;;;16.60;99.90;;;;;;5096284;28;20032;-72
2022/10/21 10:40:09;;;;;;;9.25;4.30;;;16.60;99.90;;;;;;5097289;28;20024;-72
2022/10/21 10:42:45;;;;;;;9.30;4.57;;;16.60;99.90;;;;;;5097107;28;20114;-72
2022/10/21 10:45:21;;;;;;;10.25;4.22;;;16.60;99.90;;;;;;5097157;28;20028;-72
2022/10/21 10:47:56;;;;;;;12.20;4.32;;;16.60;99.90;;;;;;5097678;28;20100;-72
2022/10/21 10:50:45;;;;;;;9.85;4.20;;;16.60;99.90;;;;;;5096090;28;20423;-72
2022/10/21 10:53:30;;;;;;;11.45;4.63;;;16.60;99.90;;;;;;5096967;28;20052;-71
2022/10/21 10:56:23;;;;;;;6.65;3.85;;;16.60;99.90;;;;;;5097662;28;20412;-71
2022/10/21 10:59:11;;;;;;;10.23;4.78;;;16.60;99.90;;;;;;5097458;28;20024;-71
2022/10/21 11:02:25;;;;;;;10.38;4.10;;;16.60;99.90;;;;;;5097025;28;20315;-71
2022/10/21 11:05:03;;;;;;;13.27;3.83;;;16.60;99.90;;;;;;5062989;28;20046;-72
2022/10/21 11:07:43;;;;;;;12.43;4.00;;;16.60;99.90;;;;;;5097061;28;20039;-72
2022/10/21 11:10:36;;;;;;;9.50;4.18;;;16.60;99.90;;;;;;5078984;28;20028;-71
2022/10/21 11:13:14;;;;;;;10.68;4.00;;;16.50;99.90;;;;;;5095718;28;20031;-71
2022/10/21 11:15:50;;;;;;;8.32;3.60;;;16.50;99.90;;;;;;5097398;28;20101;-71
2022/10/21 11:18:26;;;;;;;12.38;4.15;;;16.50;99.90;;;;;;5079046;28;20028;-71
2022/10/21 11:21:11;;;;;;;;;;;16.40;99.90;;;;;;5096097;28;20035;-71
2022/10/21 11:23:57;;;;;;;9.13;4.55;;;16.30;99.90;;;;;;5097217;28;19908;-71
2022/10/21 11:26:53;;;;;;;13.75;5.15;;;16.30;99.90;;;;;;5096942;28;20157;-71
2022/10/21 11:29:35;;;;;;;10.32;4.95;;;16.20;99.90;;;;;;5096774;28;20036;-71
2022/10/21 11:32:34;;;;;;;8.10;4.40;;;16.20;99.90;;;;;;5096637;28;20040;-71
2022/10/21 11:35:43;;;;;;;10.52;3.72;;;16.30;99.90;;;;;;5096847;28;20099;-71
2022/10/21 11:38:35;;;;;;;11.05;5.28;;;16.20;99.90;;;;;;5077300;28;20043;-71
2022/10/21 11:41:30;;;;;;;12.57;4.88;;;16.30;99.90;;;;;;5096559;28;20016;-71
2022/10/21 11:44:29;;;;;;;12.23;4.53;;;16.30;99.90;;;;;;5096644;28;20035;-71
2022/10/21 11:47:10;;;;;;;7.60;4.80;;;16.30;99.90;;;;;;5097227;28;20020;-75
2022/10/21 11:49:51;;;;;;;11.50;4.28;;;16.30;99.90;;;;;;5097031;28;20401;-72
2022/10/21 11:52:31;;;;;;;8.35;3.92;;;16.30;99.90;;;;;;5075150;28;20345;-71
2022/10/21 11:55:27;;;;;;;6.82;3.50;;;16.20;99.90;;;;;;5079104;28;20021;-73
2022/10/21 11:58:07;;;;;;;5.97;3.03;;;16.20;99.90;;;;;;5080634;28;20021;-71
2022/10/21 12:00:51;;;;;;;9.15;3.22;;;16.10;99.90;;;;;;5080063;28;20581;-71
2022/10/21 12:03:38;;;;;;;5.55;3.50;;;16.00;99.90;;;;;;5080045;28;20021;-74
2022/10/21 12:06:37;;;;;;;11.68;4.25;;;15.90;99.90;;;;;;5078911;28;20451;-73
2022/10/21 12:09:27;;;;;;;8.63;4.20;;;15.80;99.90;;;;;;5080194;28;20427;-73
2022/10/21 12:12:28;;;;;;;7.15;4.60;;;15.80;99.90;;;;;;5080226;28;20023;-73
2022/10/21 12:15:01;;;;;;;10.15;4.43;;;15.80;99.90;;;;;;5080635;28;20025;-74
2022/10/21 12:17:33;;;;;;;11.07;4.95;;;15.70;99.90;;;;;;5078819;28;20327;-74
2022/10/21 12:20:15;;;;;;;8.77;5.00;;;15.70;99.90;;;;;;5080293;28;20033;-73
2022/10/21 12:22:43;;;;;;;12.05;6.65;;;15.60;99.90;;;;;;5079973;28;20293;-73
2022/10/21 12:25:16;;;;;;;13.27;6.45;;;15.60;99.90;;;;;;5079584;28;20031;-74
2022/10/21 12:28:24;;;;;;;10.40;5.38;;;15.50;99.90;;;;;;5080328;28;20290;-73
2022/10/21 12:31:27;;;;;;;15.15;8.52;;;15.50;99.90;;;;;;5075990;28;20036;-74
2022/10/21 12:33:55;;;;;;;18.77;9.32;;;15.50;99.90;;;;;;5079813;28;20107;-74
2022/10/21 12:36:23;;;;;;;18.48;8.20;;;15.50;99.90;;;;;;5079448;28;20074;-74
2022/10/21 12:38:53;;;;;;;13.38;5.68;;;15.40;99.90;;;;;;5079817;28;20033;-73
2022/10/21 12:41:24;;;;;;;10.38;6.40;;;15.40;99.90;;;;;;5079332;28;20025;-73
2022/10/21 12:44:03;;;;;;;8.52;5.15;;;15.40;99.90;;;;;;5078102;28;20032;-73
2022/10/21 12:46:43;;;;;;;9.70;5.18;;;15.30;99.90;;;;;;5079247;28;20083;-73
2022/10/21 12:49:34;;;;;;;11.52;4.93;;;15.30;99.90;;;;;;5079495;28;20074;-71
2022/10/21 12:52:15;;;;;;;7.93;5.43;;;15.20;99.90;;;;;;5086207;28;20051;-71
2022/10/21 12:54:59;;;;;;;8.77;5.60;;;15.20;99.90;;;;;;5099402;28;20047;-71
2022/10/21 12:57:35;;;;;;;10.88;5.72;;;15.20;99.90;;;;;;5099423;28;20115;-71
2022/10/21 13:00:27;;;;;;;8.02;4.13;;;15.10;99.90;;;;;;5099263;28;20024;-72
2022/10/21 13:03:19;;;;;;;9.40;4.35;;;15.10;99.90;;;;;;5099841;28;20020;-72
2022/10/21 13:05:46;;;;;;;11.18;4.75;;;15.00;99.90;;;;;;5098111;28;20039;-72
2022/10/21 13:08:21;;;;;;;9.48;4.88;;;15.00;99.90;;;;;;5081362;28;20028;-71
2022/10/21 13:11:04;;;;;;;8.30;4.50;;;15.00;99.90;;;;;;5099658;28;20048;-72